Time;durP1;ratioP1;P1;durP2;ratioP2;P2;SDS_P1;SDS_P2;PMS_P1;PMS_P2;Temp;Humidity;BMP_temperature;BMP_pressure;BME280_temperature;BME280_humidity;BME280_pressure;Samples;Min_cycle;Max_cycle;Signal;HPM_P1;HPM_P2
2023/09/20 00:00:00;;;;;;;3.78;1.10;;;;;;;;;;499330;28;1190;-75
2023/09/20 00:00:24;;;;;;;2.43;1.00;;;;;;;;;;494856;28;1425;-76
2023/09/20 00:00:40;;;;;;;4.90;1.10;;;;;;;;;;498041;28;1148;-75
2023/09/20 00:00:56;;;;;;;5.65;1.30;;;;;;;;;;497730;28;1501;-75
2023/09/20 00:01:13;;;;;;;4.22;1.38;;;;;;;;;;497874;28;1164;-75
2023/09/20 00:01:29;;;;;;;2.67;1.10;;;;;;;;;;498941;28;944;-75
2023/09/20 00:01:44;;;;;;;2.53;1.10;;;;;;;;;;501200;28;1058;-75
2023/09/20 00:01:59;;;;;;;2.07;1.10;;;;;;;;;;498347;28;1192;-75
2023/09/20 00:02:15;;;;;;;2.15;1.13;;;;;;;;;;496510;28;1248;-76
2023/09/20 00:02:31;;;;;;;2.57;1.10;;;;;;;;;;500899;28;1344;-76
2023/09/20 00:02:49;;;;;;;2.47;1.10;;;;;;;;;;501778;28;1394;-75
2023/09/20 00:03:06;;;;;;;2.03;1.10;;;;;;;;;;500643;28;1381;-75
2023/09/20 00:03:22;;;;;;;3.28;1.17;;;;;;;;;;498907;28;1109;-75
2023/09/20 00:03:38;;;;;;;2.88;1.08;;;;;;;;;;501540;28;1108;-75
2023/09/20 00:03:53;;;;;;;6.82;1.10;;;;;;;;;;502195;28;1069;-75
2023/09/20 00:04:09;;;;;;;7.23;1.10;;;;;;;;;;500190;28;1636;-75
2023/09/20 00:04:24;;;;;;;2.78;1.08;;;;;;;;;;499613;28;1251;-76
2023/09/20 00:04:42;;;;;;;3.33;1.20;;;;;;;;;;499799;28;1173;-75
2023/09/20 00:05:00;;;;;;;3.90;1.30;;;;;;;;;;501921;28;1110;-75
2023/09/20 00:05:17;;;;;;;3.03;1.02;;;;;;;;;;495558;28;1114;-75
2023/09/20 00:05:33;;;;;;;2.90;1.15;;;;;;;;;;499989;28;970;-75
2023/09/20 00:05:49;;;;;;;3.40;1.23;;;;;;;;;;499376;28;1294;-76
2023/09/20 00:06:09;;;;;;;3.10;1.10;;;;;;;;;;498542;28;1409;-75
2023/09/20 00:06:24;;;;;;;4.13;1.20;;;;;;;;;;498469;28;1492;-75
2023/09/20 00:06:39;;;;;;;4.03;1.20;;;;;;;;;;499928;28;1149;-76
2023/09/20 00:06:55;;;;;;;2.50;1.00;;;;;;;;;;496464;28;1265;-74
2023/09/20 00:07:10;;;;;;;2.67;1.07;;;;;;;;;;496683;28;1350;-75
2023/09/20 00:07:26;;;;;;;2.43;1.10;;;;;;;;;;497818;28;1325;-75
2023/09/20 00:07:42;;;;;;;3.00;1.20;;;;;;;;;;500619;28;1586;-75
2023/09/20 00:07:58;;;;;;;4.05;1.20;;;;;;;;;;498018;28;1272;-75
2023/09/20 00:08:14;;;;;;;3.05;1.13;;;;;;;;;;498023;28;1096;-75
2023/09/20 00:08:29;;;;;;;2.38;1.10;;;;;;;;;;500304;28;1170;-75
2023/09/20 00:08:45;;;;;;;2.90;1.10;;;;;;;;;;500629;28;1408;-75
2023/09/20 00:09:00;;;;;;;2.63;1.00;;;;;;;;;;499695;28;1145;-76
2023/09/20 00:09:17;;;;;;;1.90;1.00;;;;;;;;;;497732;28;1677;-76
2023/09/20 00:09:32;;;;;;;2.40;1.10;;;;;;;;;;501509;28;1088;-75
2023/09/20 00:09:48;;;;;;;2.60;1.10;;;;;;;;;;501733;28;1069;-76
2023/09/20 00:10:04;;;;;;;2.55;1.20;;;;;;;;;;499733;28;1180;-75
2023/09/20 00:10:20;;;;;;;2.88;1.25;;;;;;;;;;495321;28;1462;-75
2023/09/20 00:10:37;;;;;;;3.53;1.10;;;;;;;;;;499076;28;1053;-75
2023/09/20 00:10:52;;;;;;;4.00;1.10;;;;;;;;;;498939;28;1270;-76
2023/09/20 00:11:08;;;;;;;3.83;1.30;;;;;;;;;;498316;28;1219;-75
2023/09/20 00:11:24;;;;;;;3.75;1.25;;;;;;;;;;499087;28;1497;-75
2023/09/20 00:11:40;;;;;;;3.10;1.08;;;;;;;;;;499176;28;1174;-76
2023/09/20 00:11:55;;;;;;;3.00;1.00;;;;;;;;;;498637;28;1250;-76
2023/09/20 00:12:11;;;;;;;2.10;0.87;;;;;;;;;;494624;28;1301;-75
2023/09/20 00:12:26;;;;;;;1.53;0.83;;;;;;;;;;495342;28;1427;-75
2023/09/20 00:12:42;;;;;;;2.63;0.88;;;;;;;;;;494835;28;1285;-75
2023/09/20 00:12:59;;;;;;;3.58;1.00;;;;;;;;;;494256;28;1079;-76
2023/09/20 00:13:14;;;;;;;2.40;1.00;;;;;;;;;;493045;28;1156;-75
2023/09/20 00:13:29;;;;;;;2.10;1.00;;;;;;;;;;499512;28;1134;-76
2023/09/20 00:13:46;;;;;;;2.03;1.00;;;;;;;;;;497073;28;1154;-75
2023/09/20 00:14:03;;;;;;;2.05;0.95;;;;;;;;;;498566;28;1099;-75
2023/09/20 00:14:19;;;;;;;2.55;1.20;;;;;;;;;;497919;28;1570;-75
2023/09/20 00:14:34;;;;;;;3.03;1.20;;;;;;;;;;501751;28;1232;-75
2023/09/20 00:14:50;;;;;;;2.65;1.00;;;;;;;;;;500599;28;1208;-75
2023/09/20 00:15:07;;;;;;;2.63;1.00;;;;;;;;;;499819;28;1103;-75
2023/09/20 00:15:23;;;;;;;3.40;1.08;;;;;;;;;;497894;28;1997;-75
2023/09/20 00:15:42;;;;;;;2.85;1.00;;;;;;;;;;497565;28;1207;-75
2023/09/20 00:15:59;;;;;;;3.40;1.13;;;;;;;;;;496263;28;1569;-75
2023/09/20 00:16:16;;;;;;;3.33;1.15;;;;;;;;;;492761;28;1320;-75
2023/09/20 00:16:32;;;;;;;3.05;1.17;;;;;;;;;;492965;28;1114;-75
2023/09/20 00:16:47;;;;;;;2.67;1.10;;;;;;;;;;492459;28;1245;-76
2023/09/20 00:17:02;;;;;;;2.33;1.10;;;;;;;;;;491418;28;1069;-76
2023/09/20 00:17:18;;;;;;;2.47;1.00;;;;;;;;;;490814;28;1309;-75
2023/09/20 00:17:34;;;;;;;3.50;1.10;;;;;;;;;;494318;28;1169;-75
2023/09/20 00:17:50;;;;;;;3.22;1.17;;;;;;;;;;495722;28;1164;-75
2023/09/20 00:18:05;;;;;;;2.67;1.20;;;;;;;;;;494434;28;1269;-75
2023/09/20 00:18:23;;;;;;;2.63;1.27;;;;;;;;;;493706;28;1331;-75
2023/09/20 00:18:39;;;;;;;2.30;1.08;;;;;;;;;;496171;28;1259;-75
2023/09/20 00:18:54;;;;;;;3.27;1.20;;;;;;;;;;496877;28;1074;-76
2023/09/20 00:19:10;;;;;;;2.92;1.20;;;;;;;;;;495055;28;1354;-75
2023/09/20 00:19:26;;;;;;;2.55;1.20;;;;;;;;;;496156;28;1267;-75
2023/09/20 00:19:43;;;;;;;2.87;1.30;;;;;;;;;;496894;28;1220;-75
2023/09/20 00:19:58;;;;;;;2.95;1.20;;;;;;;;;;498832;28;1135;-75
2023/09/20 00:20:13;;;;;;;2.85;1.10;;;;;;;;;;497115;28;1133;-75
2023/09/20 00:20:29;;;;;;;2.70;1.10;;;;;;;;;;500318;28;1167;-75
2023/09/20 00:20:44;;;;;;;2.43;1.10;;;;;;;;;;501290;28;1225;-76
2023/09/20 00:21:01;;;;;;;2.10;1.20;;;;;;;;;;496721;28;1618;-75
2023/09/20 00:21:16;;;;;;;2.47;1.20;;;;;;;;;;492848;28;1455;-75
2023/09/20 00:21:32;;;;;;;2.78;1.10;;;;;;;;;;495646;28;1487;-75
2023/09/20 00:21:47;;;;;;;3.03;1.07;;;;;;;;;;495374;28;1150;-75
2023/09/20 00:22:02;;;;;;;2.97;1.17;;;;;;;;;;493604;28;1242;-75
2023/09/20 00:22:18;;;;;;;2.03;1.20;;;;;;;;;;492917;28;1116;-75
2023/09/20 00:22:34;;;;;;;2.60;1.20;;;;;;;;;;493238;28;1324;-75
2023/09/20 00:22:50;;;;;;;3.33;1.25;;;;;;;;;;493491;28;1626;-75
2023/09/20 00:23:05;;;;;;;2.83;1.20;;;;;;;;;;492406;28;1125;-75
2023/09/20 00:23:21;;;;;;;2.37;1.17;;;;;;;;;;493001;28;1267;-76
2023/09/20 00:23:37;;;;;;;2.03;1.10;;;;;;;;;;497548;28;1419;-75
2023/09/20 00:23:52;;;;;;;2.50;1.10;;;;;;;;;;500460;28;1013;-75
2023/09/20 00:24:07;;;;;;;2.90;1.20;;;;;;;;;;497274;28;1277;-75
2023/09/20 00:24:23;;;;;;;3.25;1.20;;;;;;;;;;495414;28;1311;-75
2023/09/20 00:24:38;;;;;;;3.43;1.20;;;;;;;;;;493971;28;1184;-75
2023/09/20 00:24:55;;;;;;;2.70;1.17;;;;;;;;;;497938;28;1242;-75
2023/09/20 00:25:14;;;;;;;2.15;1.10;;;;;;;;;;496075;28;1104;-75
2023/09/20 00:25:30;;;;;;;3.30;1.30;;;;;;;;;;496406;28;1331;-75
2023/09/20 00:25:45;;;;;;;3.30;1.20;;;;;;;;;;497687;28;1671;-75
2023/09/20 00:26:01;;;;;;;3.28;1.20;;;;;;;;;;497068;28;2480;-75
2023/09/20 00:26:18;;;;;;;3.53;1.27;;;;;;;;;;495609;28;1622;-75
2023/09/20 00:26:33;;;;;;;3.53;1.23;;;;;;;;;;497547;28;1149;-71
2023/09/20 00:26:49;;;;;;;2.88;1.25;;;;;;;;;;497128;28;1041;-71
2023/09/20 00:27:04;;;;;;;2.43;1.20;;;;;;;;;;494708;28;1121;-70
2023/09/20 00:27:19;;;;;;;3.70;1.27;;;;;;;;;;493998;28;914;-71
2023/09/20 00:27:35;;;;;;;4.30;1.35;;;;;;;;;;492342;28;1167;-71
2023/09/20 00:27:50;;;;;;;3.07;1.30;;;;;;;;;;494941;28;1336;-71
2023/09/20 00:28:06;;;;;;;1.92;1.10;;;;;;;;;;494408;28;1464;-70
2023/09/20 00:28:22;;;;;;;1.20;0.80;;;;;;;;;;491332;28;1343;-71
2023/09/20 00:28:38;;;;;;;1.33;0.80;;;;;;;;;;494478;28;1118;-71
2023/09/20 00:29:02;;;;;;;3.45;1.20;;;;;;;;;;492149;28;1311;-71
2023/09/20 00:29:17;;;;;;;4.63;1.27;;;;;;;;;;492403;28;1418;-71
2023/09/20 00:29:34;;;;;;;4.17;1.40;;;;;;;;;;492078;28;1359;-71
2023/09/20 00:29:49;;;;;;;3.35;1.40;;;;;;;;;;493051;28;1404;-70
2023/09/20 00:30:14;;;;;;;3.50;1.43;;;;;;;;;;492806;28;1502;-71
2023/09/20 00:30:29;;;;;;;2.75;1.40;;;;;;;;;;494790;28;1155;-71
2023/09/20 00:30:45;;;;;;;2.83;1.40;;;;;;;;;;492861;28;1291;-71
2023/09/20 00:31:01;;;;;;;2.88;1.30;;;;;;;;;;495879;28;1386;-71
2023/09/20 00:31:16;;;;;;;3.30;1.50;;;;;;;;;;489722;28;1631;-71
2023/09/20 00:31:32;;;;;;;3.10;1.40;;;;;;;;;;490485;28;1248;-71
2023/09/20 00:31:47;;;;;;;2.95;1.40;;;;;;;;;;487500;28;1262;-70
2023/09/20 00:32:03;;;;;;;3.50;1.50;;;;;;;;;;489802;28;1262;-71
2023/09/20 00:32:18;;;;;;;3.45;1.30;;;;;;;;;;485509;28;1064;-71
2023/09/20 00:32:33;;;;;;;4.77;1.53;;;;;;;;;;488048;28;1154;-71
2023/09/20 00:32:49;;;;;;;5.40;1.50;;;;;;;;;;492108;28;1398;-71
2023/09/20 00:33:05;;;;;;;3.38;1.20;;;;;;;;;;491630;28;1310;-71
2023/09/20 00:33:20;;;;;;;2.22;1.13;;;;;;;;;;492349;28;961;-71
2023/09/20 00:33:35;;;;;;;2.30;1.20;;;;;;;;;;493289;28;1246;-71
2023/09/20 00:33:52;;;;;;;2.13;1.30;;;;;;;;;;495850;28;1034;-71
2023/09/20 00:34:07;;;;;;;3.67;1.20;;;;;;;;;;494275;28;1188;-70
2023/09/20 00:34:23;;;;;;;3.73;1.17;;;;;;;;;;495562;28;1158;-71
2023/09/20 00:34:38;;;;;;;3.17;1.10;;;;;;;;;;496625;28;1045;-70
2023/09/20 00:34:53;;;;;;;3.50;1.20;;;;;;;;;;495222;28;1267;-71
2023/09/20 00:35:13;;;;;;;2.83;1.10;;;;;;;;;;494152;28;1030;-70
2023/09/20 00:35:28;;;;;;;3.13;1.10;;;;;;;;;;495683;28;1906;-71
2023/09/20 00:35:44;;;;;;;2.80;1.13;;;;;;;;;;496964;28;1070;-71
2023/09/20 00:35:59;;;;;;;3.47;1.20;;;;;;;;;;495354;28;1106;-71
2023/09/20 00:36:19;;;;;;;3.13;1.20;;;;;;;;;;491418;28;1320;-71
2023/09/20 00:36:34;;;;;;;3.47;1.23;;;;;;;;;;492982;28;1232;-71
2023/09/20 00:36:49;;;;;;;2.72;1.10;;;;;;;;;;491980;28;1346;-71
2023/09/20 00:37:04;;;;;;;1.70;1.00;;;;;;;;;;493478;28;1105;-70
2023/09/20 00:37:20;;;;;;;1.83;1.00;;;;;;;;;;487849;28;1384;-71
2023/09/20 00:37:36;;;;;;;2.15;1.10;;;;;;;;;;490561;28;1172;-71
2023/09/20 00:37:52;;;;;;;2.40;1.30;;;;;;;;;;489350;28;1204;-71
2023/09/20 00:38:08;;;;;;;2.55;1.30;;;;;;;;;;488686;28;1230;-70
2023/09/20 00:38:24;;;;;;;3.58;1.40;;;;;;;;;;488216;28;1314;-71
2023/09/20 00:38:39;;;;;;;3.88;1.35;;;;;;;;;;491440;28;1439;-71
2023/09/20 00:38:57;;;;;;;3.13;1.30;;;;;;;;;;491722;28;1331;-71
2023/09/20 00:39:14;;;;;;;2.78;1.10;;;;;;;;;;487071;28;1412;-70
2023/09/20 00:39:30;;;;;;;2.50;1.05;;;;;;;;;;492623;28;1022;-71
2023/09/20 00:39:45;;;;;;;3.42;1.15;;;;;;;;;;492238;28;1445;-71
2023/09/20 00:40:01;;;;;;;2.88;1.20;;;;;;;;;;490649;28;1097;-70
2023/09/20 00:40:18;;;;;;;2.65;1.15;;;;;;;;;;489244;28;1101;-71
2023/09/20 00:40:35;;;;;;;2.58;1.10;;;;;;;;;;494215;28;1027;-71
2023/09/20 00:40:50;;;;;;;2.40;1.10;;;;;;;;;;494423;28;1299;-71
2023/09/20 00:41:07;;;;;;;2.10;1.10;;;;;;;;;;490744;28;1091;-70
2023/09/20 00:41:23;;;;;;;2.30;1.10;;;;;;;;;;490224;28;1323;-71
2023/09/20 00:41:38;;;;;;;2.28;1.10;;;;;;;;;;491546;28;962;-71
2023/09/20 00:41:54;;;;;;;3.60;1.20;;;;;;;;;;490972;28;1101;-71
2023/09/20 00:42:09;;;;;;;3.80;1.27;;;;;;;;;;490201;28;1327;-70
2023/09/20 00:42:27;;;;;;;1.88;1.20;;;;;;;;;;490217;28;1195;-71
2023/09/20 00:42:57;;;;;;;1.88;1.15;;;;;;;;;;489698;28;1318;-71
2023/09/20 00:43:13;;;;;;;3.85;1.35;;;;;;;;;;485693;28;1552;-70
2023/09/20 00:43:28;;;;;;;3.70;1.23;;;;;;;;;;488204;28;1118;-71
2023/09/20 00:43:43;;;;;;;2.58;1.20;;;;;;;;;;491054;28;1346;-71
2023/09/20 00:44:00;;;;;;;2.50;1.20;;;;;;;;;;491316;28;1094;-71
2023/09/20 00:44:15;;;;;;;2.72;1.10;;;;;;;;;;491312;28;1456;-71
2023/09/20 00:44:30;;;;;;;2.50;1.00;;;;;;;;;;491047;28;1442;-71
2023/09/20 00:44:46;;;;;;;2.50;1.10;;;;;;;;;;491397;28;1208;-71
2023/09/20 00:45:02;;;;;;;2.83;1.20;;;;;;;;;;490958;28;1162;-71
2023/09/20 00:45:19;;;;;;;3.15;1.13;;;;;;;;;;488545;28;1038;-71
2023/09/20 00:45:36;;;;;;;3.20;1.30;;;;;;;;;;492880;28;1169;-71
2023/09/20 00:45:52;;;;;;;3.42;1.40;;;;;;;;;;491463;28;1185;-71
2023/09/20 00:46:09;;;;;;;3.83;1.40;;;;;;;;;;491612;28;1093;-71
2023/09/20 00:46:25;;;;;;;3.50;1.30;;;;;;;;;;493525;28;1087;-71
2023/09/20 00:46:42;;;;;;;3.13;1.20;;;;;;;;;;491843;28;1256;-71
2023/09/20 00:46:58;;;;;;;3.20;1.23;;;;;;;;;;494896;28;1113;-71
2023/09/20 00:47:14;;;;;;;3.10;1.30;;;;;;;;;;492290;28;1046;-71
2023/09/20 00:47:29;;;;;;;4.00;1.20;;;;;;;;;;493966;28;1121;-71
2023/09/20 00:47:51;;;;;;;4.38;1.23;;;;;;;;;;493696;28;1212;-71
2023/09/20 00:48:09;;;;;;;3.72;1.30;;;;;;;;;;494557;28;1159;-70
2023/09/20 00:48:25;;;;;;;3.53;1.33;;;;;;;;;;494911;28;1125;-71
2023/09/20 00:48:41;;;;;;;3.70;1.65;;;;;;;;;;495203;28;1058;-71
2023/09/20 00:48:56;;;;;;;4.33;1.70;;;;;;;;;;497270;28;1173;-71
2023/09/20 00:49:12;;;;;;;3.65;1.50;;;;;;;;;;493779;28;1056;-70
2023/09/20 00:49:29;;;;;;;3.00;1.40;;;;;;;;;;494347;28;1198;-71
2023/09/20 00:49:46;;;;;;;2.80;1.58;;;;;;;;;;497516;28;1094;-71
2023/09/20 00:50:01;;;;;;;3.05;1.60;;;;;;;;;;495720;28;1164;-71
2023/09/20 00:50:17;;;;;;;2.47;1.33;;;;;;;;;;491453;28;1424;-71
2023/09/20 00:50:35;;;;;;;1.90;1.17;;;;;;;;;;494341;28;1028;-71
2023/09/20 00:50:51;;;;;;;1.80;1.15;;;;;;;;;;493999;28;1097;-71
2023/09/20 00:51:07;;;;;;;2.60;1.20;;;;;;;;;;495976;28;1362;-70
2023/09/20 00:51:25;;;;;;;3.15;1.30;;;;;;;;;;492313;28;1246;-71
2023/09/20 00:51:44;;;;;;;3.88;1.38;;;;;;;;;;493453;28;1279;-71
2023/09/20 00:52:03;;;;;;;4.00;1.35;;;;;;;;;;492540;28;1171;-71
2023/09/20 00:52:18;;;;;;;4.43;1.50;;;;;;;;;;491263;28;1782;-71
2023/09/20 00:52:38;;;;;;;4.53;1.33;;;;;;;;;;492584;28;1227;-71
2023/09/20 00:52:55;;;;;;;3.00;1.20;;;;;;;;;;492436;28;1214;-71
2023/09/20 00:53:13;;;;;;;1.75;1.00;;;;;;;;;;489209;28;1120;-70
2023/09/20 00:53:29;;;;;;;3.55;1.20;;;;;;;;;;491411;28;1132;-71
2023/09/20 00:53:44;;;;;;;3.60;1.30;;;;;;;;;;492934;28;1169;-71
2023/09/20 00:54:04;;;;;;;2.60;1.10;;;;;;;;;;491044;28;1035;-71
2023/09/20 00:54:19;;;;;;;3.13;1.20;;;;;;;;;;490298;28;1004;-71
2023/09/20 00:54:34;;;;;;;3.40;1.20;;;;;;;;;;490283;28;1121;-71
2023/09/20 00:54:50;;;;;;;2.45;1.25;;;;;;;;;;495272;28;1345;-71
2023/09/20 00:55:08;;;;;;;2.77;1.20;;;;;;;;;;496395;28;1218;-70
2023/09/20 00:55:26;;;;;;;2.42;1.20;;;;;;;;;;493783;28;1991;-71
2023/09/20 00:55:42;;;;;;;3.15;1.30;;;;;;;;;;496061;28;1085;-70
2023/09/20 00:55:58;;;;;;;3.55;1.20;;;;;;;;;;496345;28;1233;-71
2023/09/20 00:56:14;;;;;;;2.90;1.30;;;;;;;;;;493291;28;1112;-70
2023/09/20 00:56:30;;;;;;;3.30;1.50;;;;;;;;;;496601;28;1021;-71
2023/09/20 00:56:46;;;;;;;3.20;1.30;;;;;;;;;;496958;28;1280;-71
2023/09/20 00:57:02;;;;;;;3.47;1.20;;;;;;;;;;494532;28;1305;-71
2023/09/20 00:57:19;;;;;;;3.88;1.20;;;;;;;;;;491563;28;1528;-70
2023/09/20 00:57:34;;;;;;;3.15;1.42;;;;;;;;;;495192;28;1089;-71
2023/09/20 00:58:03;;;;;;;3.00;1.43;;;;;;;;;;495671;28;1138;-71
2023/09/20 00:58:19;;;;;;;3.30;1.20;;;;;;;;;;493336;28;1174;-71
2023/09/20 00:58:35;;;;;;;2.92;1.17;;;;;;;;;;493419;28;1164;-71
2023/09/20 00:58:52;;;;;;;2.75;1.10;;;;;;;;;;493896;28;1105;-71
2023/09/20 00:59:09;;;;;;;2.95;1.13;;;;;;;;;;492938;28;1655;-70
2023/09/20 00:59:26;;;;;;;3.63;1.20;;;;;;;;;;492165;28;1302;-71
2023/09/20 00:59:42;;;;;;;3.10;1.10;;;;;;;;;;494206;28;1297;-71
2023/09/20 00:59:57;;;;;;;3.22;1.30;;;;;;;;;;494982;28;1158;-71
2023/09/20 01:00:20;;;;;;;3.20;1.40;;;;;;;;;;492758;28;1160;-70
2023/09/20 01:00:37;;;;;;;2.58;1.20;;;;;;;;;;495278;28;1317;-71
2023/09/20 01:00:55;;;;;;;2.42;1.30;;;;;;;;;;496861;28;1113;-71
2023/09/20 01:01:10;;;;;;;3.30;1.48;;;;;;;;;;490713;28;1294;-71
2023/09/20 01:01:26;;;;;;;3.53;1.50;;;;;;;;;;489382;28;1349;-71
2023/09/20 01:01:42;;;;;;;3.22;1.27;;;;;;;;;;492591;28;1353;-71
2023/09/20 01:01:57;;;;;;;3.15;1.27;;;;;;;;;;490855;28;1145;-71
2023/09/20 01:02:14;;;;;;;4.60;1.40;;;;;;;;;;486159;28;1092;-70
2023/09/20 01:02:29;;;;;;;4.32;1.40;;;;;;;;;;490692;28;1093;-71
2023/09/20 01:02:45;;;;;;;2.72;1.30;;;;;;;;;;492782;28;1603;-71
2023/09/20 01:03:01;;;;;;;2.75;1.10;;;;;;;;;;491474;28;1425;-71
2023/09/20 01:03:18;;;;;;;2.45;1.10;;;;;;;;;;485903;28;1446;-71
2023/09/20 01:03:33;;;;;;;2.30;1.23;;;;;;;;;;491289;28;1059;-71
2023/09/20 01:03:50;;;;;;;2.37;1.20;;;;;;;;;;492958;28;1038;-70
2023/09/20 01:04:06;;;;;;;2.42;1.23;;;;;;;;;;491823;28;1146;-71
2023/09/20 01:04:21;;;;;;;2.30;1.27;;;;;;;;;;486963;28;1155;-71
2023/09/20 01:04:39;;;;;;;2.47;1.30;;;;;;;;;;492347;28;1091;-71
2023/09/20 01:04:54;;;;;;;2.42;1.10;;;;;;;;;;492728;28;1212;-71
2023/09/20 01:05:12;;;;;;;1.92;1.08;;;;;;;;;;485761;28;1447;-71
2023/09/20 01:05:28;;;;;;;2.10;1.10;;;;;;;;;;488530;28;1137;-71
2023/09/20 01:05:47;;;;;;;2.47;1.15;;;;;;;;;;488952;28;1235;-71
2023/09/20 01:06:09;;;;;;;5.47;1.48;;;;;;;;;;489566;28;1271;-71
2023/09/20 01:06:26;;;;;;;4.53;1.20;;;;;;;;;;485461;28;1370;-71
2023/09/20 01:06:46;;;;;;;3.15;1.27;;;;;;;;;;492609;28;1081;-71
2023/09/20 01:07:03;;;;;;;4.25;1.52;;;;;;;;;;489845;28;1146;-71
2023/09/20 01:07:18;;;;;;;4.13;1.40;;;;;;;;;;484673;28;1441;-71
2023/09/20 01:07:34;;;;;;;2.47;1.20;;;;;;;;;;490897;28;1267;-71
2023/09/20 01:07:50;;;;;;;2.87;1.30;;;;;;;;;;489175;28;1229;-71
2023/09/20 01:08:06;;;;;;;2.97;1.38;;;;;;;;;;492369;28;1107;-71
2023/09/20 01:08:22;;;;;;;2.78;1.30;;;;;;;;;;490707;28;1365;-71
2023/09/20 01:08:37;;;;;;;3.25;1.30;;;;;;;;;;492590;28;1055;-71
2023/09/20 01:08:54;;;;;;;2.47;1.20;;;;;;;;;;492875;28;1093;-71
2023/09/20 01:09:09;;;;;;;2.17;1.15;;;;;;;;;;491989;28;1066;-70
2023/09/20 01:09:25;;;;;;;2.13;1.35;;;;;;;;;;489315;28;1063;-71
2023/09/20 01:09:40;;;;;;;2.67;1.40;;;;;;;;;;490428;28;1165;-71
2023/09/20 01:09:56;;;;;;;3.03;1.25;;;;;;;;;;489901;28;1185;-71
2023/09/20 01:10:11;;;;;;;3.83;1.23;;;;;;;;;;485433;28;1239;-70
2023/09/20 01:10:27;;;;;;;3.67;1.20;;;;;;;;;;486154;28;1302;-71
2023/09/20 01:10:42;;;;;;;2.63;1.20;;;;;;;;;;487854;28;1098;-71
2023/09/20 01:10:59;;;;;;;2.75;1.30;;;;;;;;;;485999;28;1208;-71
2023/09/20 01:11:15;;;;;;;2.75;1.50;;;;;;;;;;481846;28;1209;-70
2023/09/20 01:11:32;;;;;;;2.40;1.23;;;;;;;;;;486386;28;1200;-71
2023/09/20 01:11:47;;;;;;;2.53;1.10;;;;;;;;;;488716;28;1060;-71
2023/09/20 01:12:05;;;;;;;3.25;1.13;;;;;;;;;;488998;28;1158;-71
2023/09/20 01:12:21;;;;;;;3.78;1.30;;;;;;;;;;488702;28;1145;-71
2023/09/20 01:12:37;;;;;;;3.33;1.40;;;;;;;;;;491405;28;1382;-71
2023/09/20 01:13:00;;;;;;;3.07;1.20;;;;;;;;;;492902;28;1069;-71
2023/09/20 01:13:18;;;;;;;4.95;1.30;;;;;;;;;;489035;28;1301;-71
2023/09/20 01:13:33;;;;;;;3.17;1.17;;;;;;;;;;495327;28;1097;-71
2023/09/20 01:13:49;;;;;;;3.37;1.20;;;;;;;;;;496509;28;1179;-71
2023/09/20 01:14:04;;;;;;;3.20;1.30;;;;;;;;;;494108;28;1130;-71
2023/09/20 01:14:20;;;;;;;2.70;1.20;;;;;;;;;;491170;28;1233;-71
2023/09/20 01:14:35;;;;;;;3.80;1.27;;;;;;;;;;492453;28;1279;-71
2023/09/20 01:14:51;;;;;;;4.60;1.45;;;;;;;;;;493211;28;1106;-71
2023/09/20 01:15:07;;;;;;;2.90;1.30;;;;;;;;;;491802;28;1085;-70
2023/09/20 01:15:23;;;;;;;2.30;1.20;;;;;;;;;;488506;28;2013;-71
2023/09/20 01:15:38;;;;;;;2.55;1.27;;;;;;;;;;489981;28;1160;-71
2023/09/20 01:15:54;;;;;;;2.55;1.20;;;;;;;;;;492341;28;1240;-71
2023/09/20 01:16:14;;;;;;;3.20;1.33;;;;;;;;;;489948;28;1130;-71
2023/09/20 01:16:29;;;;;;;3.95;1.40;;;;;;;;;;492961;28;1136;-71
2023/09/20 01:16:44;;;;;;;4.93;1.30;;;;;;;;;;491128;28;1218;-71
2023/09/20 01:17:06;;;;;;;4.93;1.27;;;;;;;;;;494944;28;1105;-71
2023/09/20 01:17:21;;;;;;;4.90;1.45;;;;;;;;;;491903;28;1325;-71
2023/09/20 01:17:47;;;;;;;3.50;1.40;;;;;;;;;;493418;28;1123;-71
2023/09/20 01:18:04;;;;;;;3.17;1.50;;;;;;;;;;494852;28;1099;-70
2023/09/20 01:18:20;;;;;;;3.55;1.33;;;;;;;;;;491933;28;1060;-71
2023/09/20 01:18:35;;;;;;;3.03;1.30;;;;;;;;;;493682;28;1362;-71
2023/09/20 01:18:50;;;;;;;2.87;1.40;;;;;;;;;;491507;28;1152;-71
2023/09/20 01:19:06;;;;;;;2.35;1.25;;;;;;;;;;489678;28;1237;-70
2023/09/20 01:19:21;;;;;;;1.60;1.10;;;;;;;;;;489180;28;1112;-71
2023/09/20 01:19:38;;;;;;;3.05;1.27;;;;;;;;;;493572;28;1207;-71
2023/09/20 01:19:53;;;;;;;3.40;1.30;;;;;;;;;;490093;28;1293;-71
2023/09/20 01:20:12;;;;;;;3.77;1.30;;;;;;;;;;486385;28;1124;-71
2023/09/20 01:20:30;;;;;;;3.50;1.40;;;;;;;;;;489604;28;1294;-71
2023/09/20 01:20:47;;;;;;;2.40;1.30;;;;;;;;;;490752;28;1124;-71
2023/09/20 01:21:05;;;;;;;2.25;1.10;;;;;;;;;;489156;28;1325;-71
2023/09/20 01:21:20;;;;;;;3.35;1.30;;;;;;;;;;486592;28;900;-71
2023/09/20 01:21:46;;;;;;;4.17;1.40;;;;;;;;;;489596;28;1038;-71
2023/09/20 01:22:02;;;;;;;2.35;1.23;;;;;;;;;;492664;28;1074;-71
2023/09/20 01:22:17;;;;;;;2.83;1.20;;;;;;;;;;490478;28;1141;-71
2023/09/20 01:22:33;;;;;;;3.17;1.20;;;;;;;;;;489113;28;1404;-71
2023/09/20 01:22:51;;;;;;;3.00;1.30;;;;;;;;;;491301;28;1173;-71
2023/09/20 01:23:08;;;;;;;2.47;1.30;;;;;;;;;;489466;28;1160;-71
2023/09/20 01:23:23;;;;;;;3.28;1.40;;;;;;;;;;488666;28;1132;-71
2023/09/20 01:23:42;;;;;;;3.37;1.40;;;;;;;;;;491059;28;1238;-71
2023/09/20 01:23:58;;;;;;;2.78;1.30;;;;;;;;;;487931;28;1158;-71
2023/09/20 01:24:14;;;;;;;3.70;1.50;;;;;;;;;;485548;28;1347;-70
2023/09/20 01:24:32;;;;;;;3.47;1.47;;;;;;;;;;489076;28;1483;-71
2023/09/20 01:24:47;;;;;;;4.60;1.60;;;;;;;;;;490180;28;1166;-71
2023/09/20 01:25:11;;;;;;;4.70;1.70;;;;;;;;;;488011;28;1326;-71
2023/09/20 01:25:35;;;;;;;3.17;1.60;;;;;;;;;;490293;28;1807;-71
2023/09/20 01:25:52;;;;;;;3.17;1.40;;;;;;;;;;493785;28;1125;-71
2023/09/20 01:26:07;;;;;;;3.65;1.40;;;;;;;;;;490940;28;1148;-70
2023/09/20 01:26:23;;;;;;;3.77;1.53;;;;;;;;;;491066;28;1088;-71
2023/09/20 01:26:41;;;;;;;3.45;1.40;;;;;;;;;;489509;28;1229;-71
2023/09/20 01:27:00;;;;;;;2.85;1.38;;;;;;;;;;489932;28;1334;-71
2023/09/20 01:27:15;;;;;;;2.85;1.40;;;;;;;;;;484689;28;1177;-71
2023/09/20 01:27:32;;;;;;;3.37;1.37;;;;;;;;;;489048;28;1179;-71
2023/09/20 01:27:49;;;;;;;3.00;1.48;;;;;;;;;;492528;28;1177;-71
2023/09/20 01:28:06;;;;;;;2.80;1.70;;;;;;;;;;492088;28;1074;-71
2023/09/20 01:28:28;;;;;;;2.65;1.45;;;;;;;;;;490666;28;1362;-71
2023/09/20 01:28:43;;;;;;;2.90;1.42;;;;;;;;;;493495;28;1124;-71
2023/09/20 01:28:58;;;;;;;2.87;1.53;;;;;;;;;;497102;28;1160;-71
2023/09/20 01:29:14;;;;;;;2.77;1.57;;;;;;;;;;492484;28;1078;-71
2023/09/20 01:29:29;;;;;;;3.45;1.35;;;;;;;;;;497280;28;1116;-71
2023/09/20 01:29:47;;;;;;;3.83;1.27;;;;;;;;;;496392;28;1292;-71
2023/09/20 01:30:02;;;;;;;4.22;1.40;;;;;;;;;;497175;28;993;-71
2023/09/20 01:30:18;;;;;;;3.83;1.40;;;;;;;;;;491558;28;1208;-71
2023/09/20 01:30:36;;;;;;;2.72;1.30;;;;;;;;;;494816;28;1139;-70
2023/09/20 01:30:51;;;;;;;2.40;1.20;;;;;;;;;;493942;28;1226;-71
2023/09/20 01:31:07;;;;;;;2.80;1.33;;;;;;;;;;495015;28;1260;-70
2023/09/20 01:31:23;;;;;;;2.97;1.40;;;;;;;;;;494239;28;1272;-71
2023/09/20 01:31:39;;;;;;;2.97;1.38;;;;;;;;;;495587;28;1132;-71
2023/09/20 01:32:00;;;;;;;2.90;1.30;;;;;;;;;;496512;28;1120;-71
2023/09/20 01:32:16;;;;;;;3.53;1.25;;;;;;;;;;492693;28;1139;-71
2023/09/20 01:32:31;;;;;;;2.97;1.13;;;;;;;;;;497314;28;1339;-72
2023/09/20 01:32:46;;;;;;;2.72;1.15;;;;;;;;;;494206;28;1296;-71
2023/09/20 01:33:05;;;;;;;2.10;1.20;;;;;;;;;;495336;28;1074;-71
2023/09/20 01:33:20;;;;;;;2.20;1.15;;;;;;;;;;492596;28;1451;-71
2023/09/20 01:33:36;;;;;;;2.72;1.20;;;;;;;;;;497028;28;1278;-71
2023/09/20 01:33:52;;;;;;;2.35;1.27;;;;;;;;;;494612;28;1466;-71
2023/09/20 01:34:07;;;;;;;1.85;1.20;;;;;;;;;;492085;28;1364;-70
2023/09/20 01:34:23;;;;;;;1.67;1.20;;;;;;;;;;494154;28;993;-71
2023/09/20 01:34:38;;;;;;;2.50;1.30;;;;;;;;;;496309;28;1041;-71
2023/09/20 01:34:55;;;;;;;2.87;1.30;;;;;;;;;;496505;28;1085;-71
2023/09/20 01:35:10;;;;;;;2.40;1.30;;;;;;;;;;492328;28;1184;-70
2023/09/20 01:35:29;;;;;;;2.30;1.17;;;;;;;;;;493841;28;1900;-70
2023/09/20 01:35:47;;;;;;;3.37;1.20;;;;;;;;;;496078;28;995;-71
2023/09/20 01:36:05;;;;;;;3.33;1.30;;;;;;;;;;495603;28;1241;-70
2023/09/20 01:36:21;;;;;;;3.22;1.30;;;;;;;;;;493552;28;1111;-71
2023/09/20 01:36:36;;;;;;;3.28;1.20;;;;;;;;;;497088;28;1065;-71
2023/09/20 01:36:52;;;;;;;3.08;1.40;;;;;;;;;;494913;28;1160;-70
2023/09/20 01:37:07;;;;;;;4.17;1.50;;;;;;;;;;493978;28;1118;-70
2023/09/20 01:37:23;;;;;;;3.63;1.35;;;;;;;;;;493852;28;1128;-71
2023/09/20 01:37:38;;;;;;;2.27;1.20;;;;;;;;;;498664;28;1117;-71
2023/09/20 01:37:55;;;;;;;2.90;1.20;;;;;;;;;;496850;28;1468;-71
2023/09/20 01:38:12;;;;;;;4.07;1.30;;;;;;;;;;495141;28;1113;-70
2023/09/20 01:38:27;;;;;;;3.75;1.38;;;;;;;;;;495056;28;941;-71
2023/09/20 01:38:43;;;;;;;2.97;1.40;;;;;;;;;;493792;28;1249;-70
2023/09/20 01:38:58;;;;;;;3.40;1.37;;;;;;;;;;495487;28;1122;-71
2023/09/20 01:39:16;;;;;;;3.08;1.40;;;;;;;;;;492941;28;1141;-70
2023/09/20 01:39:33;;;;;;;3.75;1.50;;;;;;;;;;496543;28;1180;-71
2023/09/20 01:39:48;;;;;;;3.40;1.42;;;;;;;;;;493869;28;1420;-71
2023/09/20 01:40:15;;;;;;;2.00;1.20;;;;;;;;;;494291;28;1331;-70
2023/09/20 01:40:33;;;;;;;3.13;1.38;;;;;;;;;;494435;28;1183;-70
2023/09/20 01:40:48;;;;;;;2.70;1.20;;;;;;;;;;496120;28;1179;-71
2023/09/20 01:41:03;;;;;;;2.17;1.25;;;;;;;;;;496182;28;1120;-70
2023/09/20 01:41:19;;;;;;;2.80;1.20;;;;;;;;;;489110;28;1421;-70
2023/09/20 01:41:38;;;;;;;2.63;1.10;;;;;;;;;;491529;28;1162;-70
2023/09/20 01:41:55;;;;;;;2.35;1.20;;;;;;;;;;493009;28;1251;-70